Map

Track Data

SID SEASON NUMBER BASIN SUBBASIN NAME ISO_TIME NATURE LAT LON WMO_WIND WMO_PRES WMO_AGENCY TRACK_TYPE DIST2LAND LANDFALL IFLAG USA_AGENCY USA_ATCF_ID USA_LAT USA_LON USA_RECORD USA_STATUS USA_WIND USA_PRES USA_SSHS USA_R34_NE USA_R34_SE USA_R34_SW USA_R34_NW USA_R50_NE USA_R50_SE USA_R50_SW USA_R50_NW USA_R64_NE USA_R64_SE USA_R64_SW USA_R64_NW USA_POCI USA_ROCI USA_RMW USA_EYE TOKYO_LAT TOKYO_LON TOKYO_GRADE TOKYO_WIND TOKYO_PRES TOKYO_R50_DIR TOKYO_R50_LONG TOKYO_R50_SHORT TOKYO_R30_DIR TOKYO_R30_LONG TOKYO_R30_SHORT TOKYO_LAND CMA_LAT CMA_LON CMA_CAT CMA_WIND CMA_PRES HKO_LAT HKO_LON HKO_CAT HKO_WIND HKO_PRES NEWDELHI_LAT NEWDELHI_LON NEWDELHI_GRADE NEWDELHI_WIND NEWDELHI_PRES NEWDELHI_CI NEWDELHI_DP NEWDELHI_POCI REUNION_LAT REUNION_LON REUNION_TYPE REUNION_WIND REUNION_PRES REUNION_TNUM REUNION_CI REUNION_RMW REUNION_R34_NE REUNION_R34_SE REUNION_R34_SW REUNION_R34_NW REUNION_R50_NE REUNION_R50_SE REUNION_R50_SW REUNION_R50_NW REUNION_R64_NE REUNION_R64_SE REUNION_R64_SW REUNION_R64_NW BOM_LAT BOM_LON BOM_TYPE BOM_WIND BOM_PRES BOM_TNUM BOM_CI BOM_RMW BOM_R34_NE BOM_R34_SE BOM_R34_SW BOM_R34_NW BOM_R50_NE BOM_R50_SE BOM_R50_SW BOM_R50_NW BOM_R64_NE BOM_R64_SE BOM_R64_SW BOM_R64_NW BOM_ROCI BOM_POCI BOM_EYE BOM_POS_METHOD BOM_PRES_METHOD NADI_LAT NADI_LON NADI_CAT NADI_WIND NADI_PRES WELLINGTON_LAT WELLINGTON_LON WELLINGTON_WIND WELLINGTON_PRES DS824_LAT DS824_LON DS824_STAGE DS824_WIND DS824_PRES TD9636_LAT TD9636_LON TD9636_STAGE TD9636_WIND TD9636_PRES TD9635_LAT TD9635_LON TD9635_WIND TD9635_PRES TD9635_ROCI NEUMANN_LAT NEUMANN_LON NEUMANN_CLASS NEUMANN_WIND NEUMANN_PRES MLC_LAT MLC_LON MLC_CLASS MLC_WIND MLC_PRES USA_GUST BOM_GUST BOM_GUST_PER REUNION_GUST REUNION_GUST_PER USA_SEAHGT USA_SEARAD_NE USA_SEARAD_SE USA_SEARAD_SW USA_SEARAD_NW STORM_SPEED STORM_DIR
1996356N08110 1996 124 WP MM GREG 1996-12-21 06:00:00 NR 7.80000 110.000 main 392 382 O_____________ jtwc_wp WP431996 7.80000 110.000 15 -1 2 0
1996356N08110 1996 124 WP MM GREG 1996-12-21 09:00:00 NR 7.91998 110.015 main 382 373 P_____________ WP431996 7.91998 110.015 15 -1 2 27
1996356N08110 1996 124 WP MM GREG 1996-12-21 12:00:00 NR 8.00000 110.100 main 380 380 O_____________ jtwc_wp WP431996 8.00000 110.100 15 -1 3 71
1996356N08110 1996 124 WP MM GREG 1996-12-21 15:00:00 NR 8.01503 110.293 main 392 392 P_____________ WP431996 8.01503 110.293 15 -1 4 90
1996356N08110 1996 124 WP MM GREG 1996-12-21 18:00:00 NR 8.00000 110.500 main 404 404 O_____________ jtwc_wp WP431996 8.00000 110.500 15 -1 3 91
1996356N08110 1996 124 WP MM GREG 1996-12-21 21:00:00 NR 8.00748 110.615 main 411 411 P_____________ WP431996 8.00748 110.615 15 -1 2 90
1996356N08110 1996 124 WP MM GREG 1996-12-22 00:00:00 NR 8.00000 110.700 main 418 418 O_____________ jtwc_wp WP431996 8.00000 110.700 15 -1 2 105
1996356N08110 1996 124 WP MM GREG 1996-12-22 03:00:00 NR 7.95750 110.800 main 425 425 P_____________ WP431996 7.95750 110.800 15 -1 2 117
1996356N08110 1996 124 WP MM GREG 1996-12-22 06:00:00 NR 7.90000 110.900 main 440 440 O_____________ jtwc_wp WP431996 7.90000 110.900 15 -1 2 119
1996356N08110 1996 124 WP MM GREG 1996-12-22 09:00:00 NR 7.85000 111.000 main 447 456 P_____________ WP431996 7.85000 111.000 15 -1 2 117
1996356N08110 1996 124 WP MM GREG 1996-12-22 12:00:00 NR 7.80000 111.100 main 463 463 O_____________ jtwc_wp WP431996 7.80000 111.100 15 -1 2 116
1996356N08110 1996 124 WP MM GREG 1996-12-22 15:00:00 NR 7.75000 111.208 main 469 458 P_____________ WP431996 7.75000 111.208 15 -1 2 117
1996356N08110 1996 124 WP MM GREG 1996-12-22 18:00:00 NR 7.70000 111.300 main 458 451 O_____________ jtwc_wp WP431996 7.70000 111.300 15 -1 2 124
1996356N08110 1996 124 WP MM GREG 1996-12-22 21:00:00 NR 7.65000 111.358 main 442 442 P_____________ WP431996 7.65000 111.358 17 -1 1 137
1996356N08110 1996 124 WP MM GREG 1996-12-23 00:00:00 NR 7.60000 111.400 main 442 442 O_____________ jtwc_wp WP431996 7.60000 111.400 20 -1 1 140
1996356N08110 1996 124 WP MM GREG 1996-12-23 03:00:00 NR 7.55000 111.450 main 435 426 P_____________ WP431996 7.55000 111.450 22 -1 1 137
1996356N08110 1996 124 WP MM GREG 1996-12-23 06:00:00 NR 7.50000 111.500 main 426 426 O_____________ jtwc_wp WP431996 7.50000 111.500 25 -1 1 140
1996356N08110 1996 124 WP MM GREG 1996-12-23 09:00:00 NR 7.45000 111.543 main 426 411 P_____________ WP431996 7.45000 111.543 25 -1 1 137
1996356N08110 1996 124 WP MM GREG 1996-12-23 12:00:00 NR 7.40000 111.600 main 411 395 O_____________ jtwc_wp WP431996 7.40000 111.600 25 -1 2 127
1996356N08110 1996 124 WP MM GREG 1996-12-23 15:00:00 NR 7.34250 111.685 main 395 388 P_____________ WP431996 7.34250 111.685 25 -1 2 117
1996356N08110 1996 124 WP MM GREG 1996-12-23 18:00:00 NR 7.30000 111.800 main 388 381 O_____________ jtwc_wp WP431996 7.30000 111.800 25 -1 3 101
1996356N08110 1996 124 WP MM GREG 1996-12-23 21:00:00 NR 7.29250 111.942 main 381 368 P_____________ WP431996 7.29250 111.942 25 -1 3 90
1996356N08110 1996 124 WP MM GREG 1996-12-24 00:00:00 NR 7.30000 112.100 main 368 362 O_____________ jtwc_wp WP431996 7.30000 112.100 25 -1 3 87
1996356N08110 1996 124 WP MM GREG 1996-12-24 03:00:00 NR 7.30748 112.235 main 362 350 P_____________ WP431996 7.30748 112.235 27 -1 3 90
1996356N08110 1996 124 WP MM GREG 1996-12-24 06:00:00 NR 7.30000 112.400 main 350 339 O_____________ jtwc_wp WP431996 7.30000 112.400 30 -1 4 95
1996356N08110 1996 124 WP MM GREG 1996-12-24 09:00:00 NR 7.27251 112.635 main 339 315 P_____________ WP431996 7.27251 112.635 32 -1 5 101
1996356N08110 1996 124 WP MM GREG 1996-12-24 12:00:00 NR 7.20000 112.900 main 315 297 O_____________ jtwc_wp WP431996 7.20000 112.900 35 0 6 112
1996356N08110 1996 124 WP MM GREG 1996-12-24 15:00:00 NR 7.06499 113.150 main 293 283 P_____________ WP431996 7.06499 113.150 37 0 4 122
1996356N08110 1996 124 WP MM GREG 1996-12-24 18:00:00 NR 7.00000 113.220 main 283 252 O__O__________ jtwc_wp WP431996 6.90000 113.400 40 0 7.40000 112.500 TD 25 1002 4 123
1996356N08110 1996 124 WP MM GREG 1996-12-24 21:00:00 NR 6.82510 113.515 main 252 220 P__P__________ WP431996 6.73499 113.650 42 0 7.00531 113.245 TD 27 1000 8 118
1996356N08110 1996 124 WP MM GREG 1996-12-25 00:00:00 NR 6.64286 113.900 main 212 173 O__O__________ jtwc_wp WP431996 6.60000 113.900 45 0 6.70000 113.900 TD 30 998 8 111
1996356N08110 1996 124 WP MM GREG 1996-12-25 03:00:00 NR 6.53743 114.276 main 173 149 P__P__________ WP431996 6.52749 114.150 45 0 6.54738 114.402 TD 30 998 7 102
1996356N08110 1996 124 WP MM GREG 1996-12-25 06:00:00 NR 6.50000 114.600 main 149 130 O__O__________ jtwc_wp WP431996 6.50000 114.400 45 0 6.50000 114.800 TD 30 998 6 95
1996356N08110 1996 124 WP MM GREG 1996-12-25 09:00:00 NR 6.48869 114.892 main 130 104 P__P__________ WP431996 6.48493 114.620 45 0 6.49244 115.165 TD 30 998 6 90
1996356N08110 1996 124 WP MM GREG 1996-12-25 12:00:00 NR 6.50000 115.200 main 104 78 O__O__________ jtwc_wp WP431996 6.50000 114.900 45 0 6.50000 115.500 TD 30 998 7 89
1996356N08110 1996 124 WP MM GREG 1996-12-25 15:00:00 NR 6.49990 115.551 main 71 47 P__P__________ WP431996 6.54238 115.275 45 0 6.45742 115.828 TD 30 998 8 89
1996356N08110 1996 124 WP MM GREG 1996-12-25 18:00:00 NR 6.51429 115.971 main 40 11 O__O__________ jtwc_wp WP431996 6.60000 115.800 45 0 6.40000 116.200 TD 30 998 10 84
1996356N08110 1996 124 WP MM GREG 1996-12-25 21:00:00 NR 6.59915 116.540 main 11 0 P__P__________ WP431996 6.72490 116.475 40 0 6.34765 116.670 TD 27 1000 13 85
1996356N08110 1996 124 WP MM GREG 1996-12-26 00:00:00 NR 6.62000 117.280 main 0 0 O__O__________ jtwc_wp WP431996 6.70000 117.300 35 0 6.30000 117.200 TD 25 1002 17 101
1996356N08110 1996 124 WP MM GREG 1996-12-26 03:00:00 NR 6.27990 118.206 main 40 35 P_____________ WP431996 6.27990 118.206 32 -1 TD 21 113
1996356N08110 1996 124 WP MM GREG 1996-12-26 06:00:00 NR 5.80000 119.200 main 44 35 O_____________ jtwc_wp WP431996 5.80000 119.200 30 -1 21 108
1996356N08110 1996 124 WP MM GREG 1996-12-26 09:00:00 NR 5.62739 120.235 main 102 102 P_____________ WP431996 5.62739 120.235 30 -1 21 98
1996356N08110 1996 124 WP MM GREG 1996-12-26 12:00:00 NR 5.50000 121.300 main 185 169 O_____________ jtwc_wp WP431996 5.50000 121.300 30 -1 22 100
1996356N08110 1996 124 WP MM GREG 1996-12-26 15:00:00 NR 5.23749 122.387 main 191 173 P_____________ WP431996 5.23749 122.387 30 -1 22 106
1996356N08110 1996 124 WP MM GREG 1996-12-26 18:00:00 NR 4.90000 123.400 main 167 155 O_____________ jtwc_wp WP431996 4.90000 123.400 30 -1 20 111
1996356N08110 1996 124 WP MM GREG 1996-12-26 21:00:00 NR 4.51488 124.275 main 165 155 P_____________ WP431996 4.51488 124.275 27 -1 18 117
1996356N08110 1996 124 WP MM GREG 1996-12-27 00:00:00 NR 4.10000 125.000 main 171 169 O_____________ jtwc_wp WP431996 4.10000 125.000 25 -1 16 122
1996356N08110 1996 124 WP MM GREG 1996-12-27 03:00:00 NR 3.69506 125.588 main 214 210 P_____________ WP431996 3.69506 125.588 22 -1 14 126
1996356N08110 1996 124 WP MM GREG 1996-12-27 06:00:00 NR 3.30000 126.100 main 215 O_____________ jtwc_wp WP431996 3.30000 126.100 20 -1 13 128

Digital Typhoon Data and Search

About IBTrACS Database

This database is a web-friendly format of International Best Track Archive for Climate Stewardship (IBTrACS), a global best track data archive curated by NOAA dating back to 1842.

Updated: 2021-12-03